sensor_id;sensor_type;location;lat;lon;timestamp;pressure;altitude;pressure_sealevel;temperature;humidity
3796;BME280;1913;50.660;7.834;2023-04-01T00:00:19;95274.28;;;8.64;100.00
3796;BME280;1913;50.660;7.834;2023-04-01T00:02:46;95270.19;;;8.68;100.00
3796;BME280;1913;50.660;7.834;2023-04-01T00:05:12;95271.59;;;8.59;100.00
3796;BME280;1913;50.660;7.834;2023-04-01T00:07:39;95265.09;;;8.61;100.00
3796;BME280;1913;50.660;7.834;2023-04-01T00:10:06;95260.41;;;8.47;100.00
3796;BME280;1913;50.660;7.834;2023-04-01T00:12:32;95262.06;;;8.53;100.00
3796;BME280;1913;50.660;7.834;2023-04-01T00:14:58;95265.56;;;8.58;100.00
3796;BME280;1913;50.660;7.834;2023-04-01T00:17:23;95269.22;;;8.57;100.00
3796;BME280;1913;50.660;7.834;2023-04-01T00:19:49;95268.19;;;8.58;100.00
3796;BME280;1913;50.660;7.834;2023-04-01T00:22:14;95276.25;;;8.57;100.00
3796;BME280;1913;50.660;7.834;2023-04-01T00:24:40;95261.69;;;8.61;100.00
3796;BME280;1913;50.660;7.834;2023-04-01T00:27:05;95262.84;;;8.53;100.00
3796;BME280;1913;50.660;7.834;2023-04-01T00:29:30;95266.66;;;8.46;100.00
3796;BME280;1913;50.660;7.834;2023-04-01T00:31:57;95266.81;;;8.56;100.00
3796;BME280;1913;50.660;7.834;2023-04-01T00:34:23;95269.91;;;8.53;100.00
3796;BME280;1913;50.660;7.834;2023-04-01T00:36:49;95257.28;;;8.50;100.00
3796;BME280;1913;50.660;7.834;2023-04-01T00:39:15;95265.63;;;8.47;100.00
3796;BME280;1913;50.660;7.834;2023-04-01T00:41:41;95268.81;;;8.49;100.00
3796;BME280;1913;50.660;7.834;2023-04-01T00:44:36;95274.44;;;8.41;100.00
3796;BME280;1913;50.660;7.834;2023-04-01T00:47:02;95271.56;;;8.42;100.00
3796;BME280;1913;50.660;7.834;2023-04-01T00:49:34;95257.69;;;8.42;100.00
3796;BME280;1913;50.660;7.834;2023-04-01T00:52:03;95273.72;;;8.45;100.00
3796;BME280;1913;50.660;7.834;2023-04-01T00:54:30;95260.97;;;8.37;100.00
3796;BME280;1913;50.660;7.834;2023-04-01T00:56:58;95259.84;;;8.45;100.00
3796;BME280;1913;50.660;7.834;2023-04-01T00:59:29;95260.19;;;8.36;100.00
3796;BME280;1913;50.660;7.834;2023-04-01T01:01:55;95259.25;;;8.43;100.00
3796;BME280;1913;50.660;7.834;2023-04-01T01:10:02;95264.78;;;8.29;100.00
3796;BME280;1913;50.660;7.834;2023-04-01T01:21:06;95258.72;;;8.29;100.00
3796;BME280;1913;50.660;7.834;2023-04-01T01:24:17;95252.25;;;8.31;100.00
3796;BME280;1913;50.660;7.834;2023-04-01T01:37:41;95250.19;;;8.33;100.00
3796;BME280;1913;50.660;7.834;2023-04-01T01:40:10;95257.28;;;8.21;100.00
3796;BME280;1913;50.660;7.834;2023-04-01T01:42:40;95255.94;;;8.19;100.00
3796;BME280;1913;50.660;7.834;2023-04-01T01:45:09;95243.56;;;8.14;100.00
3796;BME280;1913;50.660;7.834;2023-04-01T01:47:35;95244.13;;;8.16;100.00
3796;BME280;1913;50.660;7.834;2023-04-01T01:50:02;95253.81;;;8.15;100.00
3796;BME280;1913;50.660;7.834;2023-04-01T01:52:28;95231.91;;;8.22;100.00
3796;BME280;1913;50.660;7.834;2023-04-01T01:54:56;95236.81;;;8.18;100.00
3796;BME280;1913;50.660;7.834;2023-04-01T01:57:34;95247.63;;;8.22;100.00
3796;BME280;1913;50.660;7.834;2023-04-01T02:00:08;95230.47;;;8.14;100.00
3796;BME280;1913;50.660;7.834;2023-04-01T02:02:40;95228.66;;;8.14;100.00
3796;BME280;1913;50.660;7.834;2023-04-01T02:05:09;95236.81;;;8.18;100.00
3796;BME280;1913;50.660;7.834;2023-04-01T02:07:36;95254.59;;;8.16;100.00
3796;BME280;1913;50.660;7.834;2023-04-01T02:10:04;95231.97;;;8.10;100.00
3796;BME280;1913;50.660;7.834;2023-04-01T02:12:30;95227.06;;;8.13;100.00
3796;BME280;1913;50.660;7.834;2023-04-01T02:15:08;95244.50;;;8.08;100.00
3796;BME280;1913;50.660;7.834;2023-04-01T02:17:39;95235.81;;;8.19;100.00
3796;BME280;1913;50.660;7.834;2023-04-01T02:20:10;95226.34;;;8.18;100.00
3796;BME280;1913;50.660;7.834;2023-04-01T02:22:41;95230.00;;;8.17;100.00
3796;BME280;1913;50.660;7.834;2023-04-01T02:25:12;95226.03;;;8.14;100.00
3796;BME280;1913;50.660;7.834;2023-04-01T02:27:39;95232.22;;;8.08;100.00
3796;BME280;1913;50.660;7.834;2023-04-01T02:30:06;95243.94;;;8.06;100.00
3796;BME280;1913;50.660;7.834;2023-04-01T02:32:33;95223.34;;;8.09;100.00
3796;BME280;1913;50.660;7.834;2023-04-01T02:35:00;95228.31;;;8.11;100.00
3796;BME280;1913;50.660;7.834;2023-04-01T02:37:31;95224.59;;;8.07;100.00
3796;BME280;1913;50.660;7.834;2023-04-01T02:40:06;95231.19;;;8.09;100.00
3796;BME280;1913;50.660;7.834;2023-04-01T02:42:33;95221.97;;;8.07;100.00
3796;BME280;1913;50.660;7.834;2023-04-01T02:44:58;95241.06;;;8.07;100.00
3796;BME280;1913;50.660;7.834;2023-04-01T02:47:24;95227.34;;;8.00;100.00
3796;BME280;1913;50.660;7.834;2023-04-01T02:49:49;95219.53;;;8.17;100.00
3796;BME280;1913;50.660;7.834;2023-04-01T02:52:15;95230.41;;;8.09;100.00
3796;BME280;1913;50.660;7.834;2023-04-01T02:54:40;95234.44;;;8.16;100.00
3796;BME280;1913;50.660;7.834;2023-04-01T02:57:06;95230.06;;;8.05;100.00
3796;BME280;1913;50.660;7.834;2023-04-01T02:59:31;95235.19;;;8.00;100.00
3796;BME280;1913;50.660;7.834;2023-04-01T03:01:57;95230.16;;;8.10;100.00
3796;BME280;1913;50.660;7.834;2023-04-01T03:04:22;95228.16;;;8.01;100.00
3796;BME280;1913;50.660;7.834;2023-04-01T03:06:48;95220.41;;;8.06;100.00
3796;BME280;1913;50.660;7.834;2023-04-01T03:09:13;95225.38;;;8.07;100.00
3796;BME280;1913;50.660;7.834;2023-04-01T03:11:39;95220.16;;;8.07;100.00
3796;BME280;1913;50.660;7.834;2023-04-01T03:14:06;95221.56;;;7.98;100.00
3796;BME280;1913;50.660;7.834;2023-04-01T03:16:32;95233.38;;;8.01;100.00
3796;BME280;1913;50.660;7.834;2023-04-01T03:18:57;95238.38;;;8.02;100.00
3796;BME280;1913;50.660;7.834;2023-04-01T03:21:25;95224.72;;;8.00;100.00
3796;BME280;1913;50.660;7.834;2023-04-01T03:23:51;95231.69;;;7.95;nan
3796;BME280;1913;50.660;7.834;2023-04-01T03:26:17;95239.63;;;8.00;100.00
3796;BME280;1913;50.660;7.834;2023-04-01T03:28:43;95221.25;;;7.95;100.00
3796;BME280;1913;50.660;7.834;2023-04-01T03:31:09;95225.22;;;7.97;100.00
3796;BME280;1913;50.660;7.834;2023-04-01T03:33:35;95215.75;;;7.96;100.00
3796;BME280;1913;50.660;7.834;2023-04-01T03:36:00;95215.44;;;7.92;100.00
3796;BME280;1913;50.660;7.834;2023-04-01T03:38:26;95225.75;;;7.99;100.00
3796;BME280;1913;50.660;7.834;2023-04-01T03:40:51;95217.19;;;7.87;100.00
3796;BME280;1913;50.660;7.834;2023-04-01T03:43:16;95229.78;;;7.90;100.00
3796;BME280;1913;50.660;7.834;2023-04-01T03:45:50;95237.31;;;7.86;100.00
3796;BME280;1913;50.660;7.834;2023-04-01T03:48:15;95226.94;;;7.91;100.00
3796;BME280;1913;50.660;7.834;2023-04-01T03:50:42;95217.06;;;7.82;100.00
3796;BME280;1913;50.660;7.834;2023-04-01T03:53:07;95234.00;;;7.91;100.00
3796;BME280;1913;50.660;7.834;2023-04-01T03:55:35;95229.09;;;7.95;100.00
3796;BME280;1913;50.660;7.834;2023-04-01T03:58:02;95233.22;;;7.79;100.00
3796;BME280;1913;50.660;7.834;2023-04-01T04:00:29;95215.25;;;7.82;100.00
3796;BME280;1913;50.660;7.834;2023-04-01T04:02:55;95230.00;;;7.88;100.00
3796;BME280;1913;50.660;7.834;2023-04-01T04:05:24;95240.47;;;7.88;100.00
3796;BME280;1913;50.660;7.834;2023-04-01T04:07:50;95216.94;;;7.88;100.00
3796;BME280;1913;50.660;7.834;2023-04-01T04:10:16;95225.69;;;7.82;100.00
3796;BME280;1913;50.660;7.834;2023-04-01T04:12:42;95224.69;;;7.83;100.00
3796;BME280;1913;50.660;7.834;2023-04-01T04:15:08;95229.69;;;7.85;100.00
3796;BME280;1913;50.660;7.834;2023-04-01T04:17:34;95222.41;;;7.87;100.00
3796;BME280;1913;50.660;7.834;2023-04-01T04:19:59;95224.72;;;8.00;100.00
3796;BME280;1913;50.660;7.834;2023-04-01T04:22:25;95219.34;;;7.90;100.00
3796;BME280;1913;50.660;7.834;2023-04-01T04:24:50;95213.28;;;7.89;100.00
3796;BME280;1913;50.660;7.834;2023-04-01T04:27:16;95225.09;;;7.92;100.00
3796;BME280;1913;50.660;7.834;2023-04-01T04:29:41;95225.25;;;7.85;100.00
3796;BME280;1913;50.660;7.834;2023-04-01T04:32:07;95220.34;;;7.89;100.00
3796;BME280;1913;50.660;7.834;2023-04-01T04:34:32;95225.34;;;7.90;100.00
3796;BME280;1913;50.660;7.834;2023-04-01T04:36:58;95231.09;;;7.76;100.00
3796;BME280;1913;50.660;7.834;2023-04-01T04:39:23;95236.41;;;7.81;100.00
3796;BME280;1913;50.660;7.834;2023-04-01T04:41:49;95226.16;;;7.91;100.00
3796;BME280;1913;50.660;7.834;2023-04-01T04:44:14;95226.03;;;7.86;100.00
3796;BME280;1913;50.660;7.834;2023-04-01T04:46:40;95226.47;;;7.95;100.00
3796;BME280;1913;50.660;7.834;2023-04-01T04:49:05;95236.50;;;7.86;100.00
3796;BME280;1913;50.660;7.834;2023-04-01T04:51:31;95231.84;;;7.88;100.00
3796;BME280;1913;50.660;7.834;2023-04-01T04:54:00;95231.38;;;7.91;100.00
3796;BME280;1913;50.660;7.834;2023-04-01T04:56:25;95248.81;;;7.74;100.00
3796;BME280;1913;50.660;7.834;2023-04-01T04:58:51;95244.25;;;7.81;100.00
3796;BME280;1913;50.660;7.834;2023-04-01T05:01:18;95226.31;;;7.73;100.00
3796;BME280;1913;50.660;7.834;2023-04-01T05:03:44;95234.38;;;7.83;100.00
3796;BME280;1913;50.660;7.834;2023-04-01T05:06:12;95255.50;;;7.81;100.00
3796;BME280;1913;50.660;7.834;2023-04-01T05:08:38;95242.22;;;7.83;100.00
3796;BME280;1913;50.660;7.834;2023-04-01T05:11:09;95249.69;;;7.91;100.00
3796;BME280;1913;50.660;7.834;2023-04-01T05:13:36;95242.06;;;7.89;100.00
3796;BME280;1913;50.660;7.834;2023-04-01T05:16:02;95240.13;;;7.85;100.00
3796;BME280;1913;50.660;7.834;2023-04-01T05:18:27;95243.53;;;7.85;100.00
3796;BME280;1913;50.660;7.834;2023-04-01T05:20:53;95247.84;;;7.91;100.00
3796;BME280;1913;50.660;7.834;2023-04-01T05:23:21;95249.03;;;7.84;100.00
3796;BME280;1913;50.660;7.834;2023-04-01T05:25:50;95241.06;;;7.79;100.00
3796;BME280;1913;50.660;7.834;2023-04-01T05:28:19;95243.00;;;7.83;100.00
3796;BME280;1913;50.660;7.834;2023-04-01T05:30:44;95240.78;;;7.92;100.00
3796;BME280;1913;50.660;7.834;2023-04-01T05:33:11;95241.06;;;7.79;100.00
3796;BME280;1913;50.660;7.834;2023-04-01T05:35:37;95240.47;;;7.88;100.00
3796;BME280;1913;50.660;7.834;2023-04-01T05:38:03;95245.16;;;7.86;100.00
3796;BME280;1913;50.660;7.834;2023-04-01T05:40:29;95251.72;;;7.89;100.00
3796;BME280;1913;50.660;7.834;2023-04-01T05:42:55;95251.59;;;7.96;100.00
3796;BME280;1913;50.660;7.834;2023-04-01T05:45:20;95256.63;;;7.85;100.00
3796;BME280;1913;50.660;7.834;2023-04-01T05:47:46;95247.19;;;7.84;100.00
3796;BME280;1913;50.660;7.834;2023-04-01T05:50:12;95247.53;;;7.88;100.00
3796;BME280;1913;50.660;7.834;2023-04-01T05:52:38;95253.41;;;7.95;100.00
3796;BME280;1913;50.660;7.834;2023-04-01T05:55:04;95242.22;;;7.83;100.00
3796;BME280;1913;50.660;7.834;2023-04-01T05:57:30;95250.66;;;8.02;100.00
3796;BME280;1913;50.660;7.834;2023-04-01T05:59:56;95247.59;;;7.93;100.00
3796;BME280;1913;50.660;7.834;2023-04-01T06:02:22;95251.38;;;7.97;100.00
3796;BME280;1913;50.660;7.834;2023-04-01T06:04:49;95249.16;;;8.06;100.00
3796;BME280;1913;50.660;7.834;2023-04-01T06:07:16;95250.41;;;8.03;100.00
3796;BME280;1913;50.660;7.834;2023-04-01T06:09:44;95239.81;;;8.10;100.00
3796;BME280;1913;50.660;7.834;2023-04-01T06:14:59;95254.47;;;8.11;100.00
3796;BME280;1913;50.660;7.834;2023-04-01T06:26:25;95249.97;;;8.06;100.00
3796;BME280;1913;50.660;7.834;2023-04-01T06:29:26;95286.78;;;8.16;100.00
3796;BME280;1913;50.660;7.834;2023-04-01T06:40:19;95261.50;;;8.22;100.00
3796;BME280;1913;50.660;7.834;2023-04-01T06:48:06;95273.63;;;8.28;100.00
3796;BME280;1913;50.660;7.834;2023-04-01T06:50:55;95274.72;;;8.15;100.00
3796;BME280;1913;50.660;7.834;2023-04-01T06:56:00;95269.31;;;8.05;100.00
3796;BME280;1913;50.660;7.834;2023-04-01T06:58:34;95275.41;;;8.11;100.00
3796;BME280;1913;50.660;7.834;2023-04-01T07:01:08;95274.50;;;8.17;100.00
3796;BME280;1913;50.660;7.834;2023-04-01T07:03:39;95275.38;;;8.23;100.00
3796;BME280;1913;50.660;7.834;2023-04-01T07:06:14;95269.03;;;8.19;100.00
3796;BME280;1913;50.660;7.834;2023-04-01T07:08:43;95280.25;;;8.31;100.00
3796;BME280;1913;50.660;7.834;2023-04-01T07:11:14;95271.97;;;8.22;100.00
3796;BME280;1913;50.660;7.834;2023-04-01T07:13:59;95274.94;;;8.14;100.00
3796;BME280;1913;50.660;7.834;2023-04-01T07:16:33;95285.47;;;8.31;100.00
3796;BME280;1913;50.660;7.834;2023-04-01T07:20:23;95282.94;;;8.36;100.00
3796;BME280;1913;50.660;7.834;2023-04-01T07:24:54;95288.09;;;8.31;100.00
3796;BME280;1913;50.660;7.834;2023-04-01T07:27:23;95286.84;;;8.33;100.00
3796;BME280;1913;50.660;7.834;2023-04-01T07:29:48;95286.34;;;8.48;100.00
3796;BME280;1913;50.660;7.834;2023-04-01T07:32:29;95289.34;;;8.40;100.00
3796;BME280;1913;50.660;7.834;2023-04-01T07:35:09;95289.41;;;8.45;100.00
3796;BME280;1913;50.660;7.834;2023-04-01T07:48:58;95298.81;;;8.58;100.00
3796;BME280;1913;50.660;7.834;2023-04-01T07:51:34;95299.38;;;8.77;100.00
3796;BME280;1913;50.660;7.834;2023-04-01T07:54:22;95305.03;;;8.69;100.00
3796;BME280;1913;50.660;7.834;2023-04-01T07:57:02;95308.81;;;8.78;100.00
3796;BME280;1913;50.660;7.834;2023-04-01T08:05:35;95303.97;;;8.70;100.00
3796;BME280;1913;50.660;7.834;2023-04-01T08:08:20;95319.47;;;8.88;100.00
3796;BME280;1913;50.660;7.834;2023-04-01T08:10:57;95317.78;;;8.82;100.00
3796;BME280;1913;50.660;7.834;2023-04-01T08:16:12;95321.78;;;8.84;100.00
3796;BME280;1913;50.660;7.834;2023-04-01T08:19:14;95331.38;;;8.96;100.00
3796;BME280;1913;50.660;7.834;2023-04-01T08:21:54;95329.25;;;9.26;100.00
3796;BME280;1913;50.660;7.834;2023-04-01T08:24:41;95319.31;;;9.45;100.00
3796;BME280;1913;50.660;7.834;2023-04-01T08:27:20;95327.50;;;9.32;100.00
3796;BME280;1913;50.660;7.834;2023-04-01T08:29:56;95329.16;;;9.55;100.00
3796;BME280;1913;50.660;7.834;2023-04-01T08:32:34;95339.38;;;9.56;100.00
3796;BME280;1913;50.660;7.834;2023-04-01T08:35:14;95332.53;;;9.72;100.00
3796;BME280;1913;50.660;7.834;2023-04-01T08:37:41;95338.81;;;9.71;100.00
3796;BME280;1913;50.660;7.834;2023-04-01T08:46:03;95343.97;;;9.66;100.00
3796;BME280;1913;50.660;7.834;2023-04-01T08:51:43;95344.75;;;9.83;100.00
3796;BME280;1913;50.660;7.834;2023-04-01T08:54:40;95341.22;;;9.95;100.00
3796;BME280;1913;50.660;7.834;2023-04-01T09:05:59;95363.28;;;9.77;100.00
3796;BME280;1913;50.660;7.834;2023-04-01T09:25:35;95374.03;;;9.58;100.00
3796;BME280;1913;50.660;7.834;2023-04-01T09:28:16;95377.97;;;9.78;100.00
3796;BME280;1913;50.660;7.834;2023-04-01T09:31:08;95382.44;;;9.77;100.00
3796;BME280;1913;50.660;7.834;2023-04-01T09:36:38;95381.44;;;9.62;100.00
3796;BME280;1913;50.660;7.834;2023-04-01T09:39:42;95378.72;;;9.56;100.00
3796;BME280;1913;50.660;7.834;2023-04-01T09:44:58;95386.97;;;9.82;100.00
3796;BME280;1913;50.660;7.834;2023-04-01T09:58:40;95391.16;;;10.22;100.00
3796;BME280;1913;50.660;7.834;2023-04-01T10:16:07;95413.41;;;9.97;100.00
3796;BME280;1913;50.660;7.834;2023-04-01T10:33:19;95436.56;;;10.00;100.00
3796;BME280;1913;50.660;7.834;2023-04-01T10:36:00;95449.25;;;10.08;100.00
3796;BME280;1913;50.660;7.834;2023-04-01T10:44:03;95443.56;;;9.78;100.00
3796;BME280;1913;50.660;7.834;2023-04-01T10:55:14;95444.00;;;10.08;100.00
3796;BME280;1913;50.660;7.834;2023-04-01T11:11:47;95444.16;;;10.36;100.00
3796;BME280;1913;50.660;7.834;2023-04-01T11:14:41;95452.25;;;10.17;100.00
3796;BME280;1913;50.660;7.834;2023-04-01T11:17:30;95457.91;;;10.43;100.00
3796;BME280;1913;50.660;7.834;2023-04-01T11:26:18;95457.09;;;10.64;100.00
3796;BME280;1913;50.660;7.834;2023-04-01T11:34:11;95465.38;;;10.34;100.00
3796;BME280;1913;50.660;7.834;2023-04-01T11:39:31;95472.25;;;10.57;100.00
3796;BME280;1913;50.660;7.834;2023-04-01T11:44:46;95477.44;;;10.52;100.00
3796;BME280;1913;50.660;7.834;2023-04-01T11:55:51;95475.22;;;10.88;100.00
3796;BME280;1913;50.660;7.834;2023-04-01T12:14:32;95497.25;;;10.82;100.00
3796;BME280;1913;50.660;7.834;2023-04-01T12:42:12;95525.75;;;10.51;100.00
3796;BME280;1913;50.660;7.834;2023-04-01T12:56:48;95536.41;;;10.83;100.00
3796;BME280;1913;50.660;7.834;2023-04-01T12:59:44;95539.19;;;11.20;100.00
3796;BME280;1913;50.660;7.834;2023-04-01T13:07:35;95547.63;;;11.71;100.00
3796;BME280;1913;50.660;7.834;2023-04-01T13:10:25;95550.81;;;11.46;100.00
3796;BME280;1913;50.660;7.834;2023-04-01T13:13:16;95556.28;;;11.45;100.00
3796;BME280;1913;50.660;7.834;2023-04-01T13:16:16;95550.13;;;11.56;100.00
3796;BME280;1913;50.660;7.834;2023-04-01T13:24:37;95558.41;;;10.99;100.00
3796;BME280;1913;50.660;7.834;2023-04-01T13:29:41;95564.16;;;10.96;100.00
3796;BME280;1913;50.660;7.834;2023-04-01T13:35:01;95571.66;;;10.87;100.00
3796;BME280;1913;50.660;7.834;2023-04-01T13:40:42;95580.63;;;10.69;100.00
3796;BME280;1913;50.660;7.834;2023-04-01T13:43:19;95580.72;;;10.74;100.00
3796;BME280;1913;50.660;7.834;2023-04-01T14:14:21;95607.84;;;10.80;100.00
3796;BME280;1913;50.660;7.834;2023-04-01T14:33:42;95625.28;;;10.86;100.00
3796;BME280;1913;50.660;7.834;2023-04-01T14:45:17;95624.44;;;10.64;100.00
3796;BME280;1913;50.660;7.834;2023-04-01T14:47:53;95622.44;;;10.54;100.00
3796;BME280;1913;50.660;7.834;2023-04-01T14:50:25;95619.97;;;10.64;100.00
3796;BME280;1913;50.660;7.834;2023-04-01T14:52:57;95624.34;;;10.75;100.00
3796;BME280;1913;50.660;7.834;2023-04-01T14:58:19;95626.50;;;10.62;100.00
3796;BME280;1913;50.660;7.834;2023-04-01T15:11:18;95638.53;;;10.12;100.00
3796;BME280;1913;50.660;7.834;2023-04-01T15:30:28;95654.09;;;10.81;100.00
3796;BME280;1913;50.660;7.834;2023-04-01T15:38:40;95657.53;;;10.65;100.00
3796;BME280;1913;50.660;7.834;2023-04-01T15:55:01;95672.25;;;10.49;100.00
3796;BME280;1913;50.660;7.834;2023-04-01T16:00:31;95684.66;;;10.37;100.00
3796;BME280;1913;50.660;7.834;2023-04-01T16:05:55;95689.38;;;10.23;100.00
3796;BME280;1913;50.660;7.834;2023-04-01T16:08:36;95693.59;;;10.36;100.00
3796;BME280;1913;50.660;7.834;2023-04-01T16:22:13;95702.19;;;10.48;100.00
3796;BME280;1913;50.660;7.834;2023-04-01T16:30:37;95712.16;;;10.46;100.00
3796;BME280;1913;50.660;7.834;2023-04-01T16:33:04;95711.97;;;10.36;100.00
3796;BME280;1913;50.660;7.834;2023-04-01T16:44:08;95729.19;;;10.31;100.00
3796;BME280;1913;50.660;7.834;2023-04-01T16:57:52;95737.31;;;10.01;100.00
3796;BME280;1913;50.660;7.834;2023-04-01T17:03:13;95747.41;;;10.10;100.00
3796;BME280;1913;50.660;7.834;2023-04-01T17:11:27;95769.22;;;10.10;100.00
3796;BME280;1913;50.660;7.834;2023-04-01T17:22:38;95780.03;;;9.73;100.00
3796;BME280;1913;50.660;7.834;2023-04-01T17:28:12;95786.88;;;9.86;100.00
3796;BME280;1913;50.660;7.834;2023-04-01T17:33:42;95800.19;;;9.84;100.00
3796;BME280;1913;50.660;7.834;2023-04-01T17:49:59;95825.00;;;9.53;100.00
3796;BME280;1913;50.660;7.834;2023-04-01T17:57:52;95836.19;;;9.61;100.00
3796;BME280;1913;50.660;7.834;2023-04-01T18:00:28;95840.94;;;9.75;100.00
3796;BME280;1913;50.660;7.834;2023-04-01T18:06:12;95849.63;;;9.52;100.00
3796;BME280;1913;50.660;7.834;2023-04-01T18:08:54;95855.56;;;9.48;100.00
3796;BME280;1913;50.660;7.834;2023-04-01T18:14:31;95856.81;;;9.57;100.00
3796;BME280;1913;50.660;7.834;2023-04-01T18:17:24;95865.22;;;9.24;100.00
3796;BME280;1913;50.660;7.834;2023-04-01T18:22:48;95874.00;;;9.29;100.00
3796;BME280;1913;50.660;7.834;2023-04-01T18:25:40;95868.66;;;9.36;100.00
3796;BME280;1913;50.660;7.834;2023-04-01T18:33:43;95887.19;;;9.11;100.00
3796;BME280;1913;50.660;7.834;2023-04-01T18:39:16;95883.91;;;9.27;100.00
3796;BME280;1913;50.660;7.834;2023-04-01T18:47:55;95904.06;;;9.15;100.00
3796;BME280;1913;50.660;7.834;2023-04-01T18:50:30;95914.19;;;9.11;100.00
3796;BME280;1913;50.660;7.834;2023-04-01T18:55:47;95921.34;;;9.04;100.00
3796;BME280;1913;50.660;7.834;2023-04-01T18:58:46;95926.53;;;9.23;100.00
3796;BME280;1913;50.660;7.834;2023-04-01T19:01:28;95928.78;;;9.07;100.00
3796;BME280;1913;50.660;7.834;2023-04-01T19:06:55;95942.50;;;9.33;100.00
3796;BME280;1913;50.660;7.834;2023-04-01T19:17:42;95955.53;;;9.09;100.00
3796;BME280;1913;50.660;7.834;2023-04-01T19:20:18;95960.88;;;9.03;100.00
3796;BME280;1913;50.660;7.834;2023-04-01T19:23:16;95965.13;;;9.16;100.00
3796;BME280;1913;50.660;7.834;2023-04-01T19:25:48;95968.19;;;9.13;100.00
3796;BME280;1913;50.660;7.834;2023-04-01T19:33:58;95974.19;;;9.01;100.00
3796;BME280;1913;50.660;7.834;2023-04-01T19:42:16;95984.75;;;8.95;100.00
3796;BME280;1913;50.660;7.834;2023-04-01T19:45:04;95983.03;;;8.88;100.00
3796;BME280;1913;50.660;7.834;2023-04-01T19:50:49;95990.25;;;8.93;100.00
3796;BME280;1913;50.660;7.834;2023-04-01T19:56:27;96004.16;;;8.75;100.00
3796;BME280;1913;50.660;7.834;2023-04-01T19:59:28;95999.78;;;8.87;100.00
3796;BME280;1913;50.660;7.834;2023-04-01T20:04:57;96006.97;;;8.74;100.00
3796;BME280;1913;50.660;7.834;2023-04-01T20:07:46;96013.22;;;8.91;100.00
3796;BME280;1913;50.660;7.834;2023-04-01T20:10:22;96014.69;;;8.87;100.00
3796;BME280;1913;50.660;7.834;2023-04-01T20:15:58;96028.22;;;8.84;100.00
3796;BME280;1913;50.660;7.834;2023-04-01T20:18:45;96030.97;;;8.89;100.00
3796;BME280;1913;50.660;7.834;2023-04-01T20:24:41;96039.00;;;8.94;100.00
3796;BME280;1913;50.660;7.834;2023-04-01T20:27:33;96047.00;;;8.81;100.00
3796;BME280;1913;50.660;7.834;2023-04-01T20:30:27;96046.13;;;8.87;100.00
3796;BME280;1913;50.660;7.834;2023-04-01T20:47:15;96059.94;;;8.94;100.00
3796;BME280;1913;50.660;7.834;2023-04-01T20:52:57;96055.75;;;8.93;100.00
3796;BME280;1913;50.660;7.834;2023-04-01T20:58:34;96072.81;;;8.96;100.00
3796;BME280;1913;50.660;7.834;2023-04-01T21:21:22;96094.50;;;8.84;100.00
3796;BME280;1913;50.660;7.834;2023-04-01T21:32:43;96110.59;;;8.88;100.00
3796;BME280;1913;50.660;7.834;2023-04-01T21:35:27;96113.13;;;8.76;100.00
3796;BME280;1913;50.660;7.834;2023-04-01T21:41:08;96116.25;;;8.85;100.00
3796;BME280;1913;50.660;7.834;2023-04-01T21:49:14;96122.91;;;8.87;100.00
3796;BME280;1913;50.660;7.834;2023-04-01T22:00:21;96144.72;;;8.81;100.00
3796;BME280;1913;50.660;7.834;2023-04-01T22:05:39;96146.72;;;8.86;100.00
3796;BME280;1913;50.660;7.834;2023-04-01T22:08:28;96146.03;;;8.72;100.00
3796;BME280;1913;50.660;7.834;2023-04-01T22:17:03;96158.63;;;8.57;100.00
3796;BME280;1913;50.660;7.834;2023-04-01T22:25:45;96169.91;;;8.82;100.00
3796;BME280;1913;50.660;7.834;2023-04-01T22:28:32;96171.13;;;8.80;100.00
3796;BME280;1913;50.660;7.834;2023-04-01T22:31:03;96166.03;;;8.85;100.00
3796;BME280;1913;50.660;7.834;2023-04-01T22:44:38;96180.50;;;8.69;100.00
3796;BME280;1913;50.660;7.834;2023-04-01T22:47:08;96178.53;;;8.65;100.00
3796;BME280;1913;50.660;7.834;2023-04-01T22:52:38;96189.47;;;8.80;100.00
3796;BME280;1913;50.660;7.834;2023-04-01T22:55:14;96193.78;;;8.93;100.00
3796;BME280;1913;50.660;7.834;2023-04-01T22:57:50;96188.09;;;8.77;100.00
3796;BME280;1913;50.660;7.834;2023-04-01T23:00:26;96193.25;;;8.84;100.00
3796;BME280;1913;50.660;7.834;2023-04-01T23:03:15;96192.06;;;8.61;100.00
3796;BME280;1913;50.660;7.834;2023-04-01T23:05:56;96191.63;;;8.90;100.00
3796;BME280;1913;50.660;7.834;2023-04-01T23:11:02;96198.28;;;8.85;100.00
3796;BME280;1913;50.660;7.834;2023-04-01T23:13:33;96204.63;;;8.96;100.00
3796;BME280;1913;50.660;7.834;2023-04-01T23:16:01;96207.84;;;8.98;100.00
3796;BME280;1913;50.660;7.834;2023-04-01T23:18:32;96210.56;;;9.10;100.00
3796;BME280;1913;50.660;7.834;2023-04-01T23:23:44;96214.25;;;9.02;100.00
3796;BME280;1913;50.660;7.834;2023-04-01T23:26:17;96213.94;;;8.92;100.00
3796;BME280;1913;50.660;7.834;2023-04-01T23:28:55;96217.31;;;9.18;100.00
3796;BME280;1913;50.660;7.834;2023-04-01T23:34:44;96228.91;;;9.10;100.00
3796;BME280;1913;50.660;7.834;2023-04-01T23:36:45;96231.00;;;9.01;100.00
3796;BME280;1913;50.660;7.834;2023-04-01T23:41:51;96238.41;;;9.29;100.00
3796;BME280;1913;50.660;7.834;2023-04-01T23:44:17;96236.34;;;9.31;100.00
3796;BME280;1913;50.660;7.834;2023-04-01T23:46:46;96241.44;;;9.26;100.00
3796;BME280;1913;50.660;7.834;2023-04-01T23:49:25;96247.59;;;9.14;100.00
3796;BME280;1913;50.660;7.834;2023-04-01T23:52:25;96249.00;;;9.16;100.00
3796;BME280;1913;50.660;7.834;2023-04-01T23:55:18;96249.69;;;9.30;100.00
3796;BME280;1913;50.660;7.834;2023-04-01T23:57:42;96252.84;;;9.14;100.00
